ADDS TAF Board (Experimental) INFO Settings
IDs: Format: Expanded Condensed

KFLL - Ft Lauderdale-Hollyw, FL, US

Issued at 1508 UTC 30 May 2015
Updated at: 1623 UTC 30 May 2015
Time1553Z 30/17Z 30/18Z 30/19Z 30/20Z 30/21Z 30/22Z 30/23Z 31/00Z 31/01Z 31/02Z 31/03Z 31/04Z 31/05Z
Type OBS PRVL PRVL PRVL PRVL PRVL PRVL PRVL PRVL PRVL PRVL PRVL PRVL PRVL
VIS 10 >6 >6 >6 >6 >6 >6 >6 >6 >6 >6 >6 >6 >6
CIG 250 -- -- -- -- -- -- -- -- -- -- -- -- --
Cover BKN SCT SCT SCT SCT SCT SCT SCT SCT SCT SCT SCT SCT SCT
FltCat VFR VFR VFR VFR VFR VFR VFR VFR VFR VFR VFR VFR VFR VFR
WX -- VCSH VCSH VCSH VCSH VCSH VCSH VCSH VCSH VCSH VCSH VCSH VCSH VCSH
WDir 90 100 100 100 100 100 100 100 100 100 100 100 100 100
WSpd 6 9 9 9 9 9 9 9 9 9 9 9 9 9
WGst 15 -- -- -- -- -- -- -- -- -- -- -- -- --
R10/28
XWnd 0 -2 -2 -2 -2 -2 -2 -2 -2 -2 -2 -2 -2 -2
XGst 0 -- -- -- -- -- -- -- -- -- -- -- -- --
HWnd 6 9 9 9 9 9 9 9 9 9 9 9 9 9
HGst 15 -- -- -- -- -- -- -- -- -- -- -- -- --

NOTE: TEMPO conditions in [brackets]. Keep in mind TEMPO conditions might be better (lower impact) than prevailing conditions.

Raw TAF
KFLL 301508Z 3015/3112 10009KT P6SM VCSH SCT030 SCT050
  FM310600 11005KT P6SM SCT250


Raw METAR
KFLL 301553Z 09006G15KT 10SM SCT029 BKN250 28/22 A3006 RMK AO2 SLP178 T02830217
KFLL 301453Z 10008KT 10SM SCT027 BKN250 28/22 A3006 RMK AO2 SLP179 T02780217 51008
KFLL 301353Z 05007KT 10SM SCT030 SCT250 28/22 A3005 RMK AO2 SLP176 T02830217

METAR Board
Radar Display
Forecast Discussion

TAF Board Legend

Potential Impact
Threat None Slight Moderate High
Visibility (sm) ≥5.1 5.1>X≥3 3>X≥1 <1
Ceiling (100 ft) ≥30.1 30.1>X≥10 10>X≥5 <5
Wind Speed (kt) <10 10≤X<20 20≤X<30 ≥30
Wind Gust (kt) <15 15≤X<25 25≤X<35 ≥35
Weather No Wx Reported VCTS,-TS,-FZRA,SN TS,FZRA +TS,+FZRA,+SN